createdAt,value
2018-02-18T00:00:43.141Z,96
2018-02-18T00:01:42.232Z,96
2018-02-18T00:02:41.782Z,96
2018-02-18T00:03:39.904Z,96
2018-02-18T00:04:40.561Z,96
2018-02-18T00:05:40.299Z,96
2018-02-18T00:06:40.244Z,96
2018-02-18T00:07:46.442Z,96
2018-02-18T00:08:43.430Z,96
2018-02-18T00:09:39.961Z,96
2018-02-18T00:10:40.398Z,96
2018-02-18T00:11:40.465Z,96
2018-02-18T00:12:43.134Z,96
2018-02-18T00:13:41.374Z,96
2018-02-18T00:14:44.132Z,96
2018-02-18T00:15:40.532Z,97
2018-02-18T00:16:39.492Z,97
2018-02-18T00:17:39.715Z,96
2018-02-18T00:18:40.824Z,96
2018-02-18T00:19:41.310Z,96
2018-02-18T00:20:40.363Z,96
2018-02-18T00:21:45.401Z,96
2018-02-18T00:22:49.317Z,96
2018-02-18T00:23:41.955Z,96
2018-02-18T00:24:46.376Z,96
2018-02-18T00:25:40.903Z,96
2018-02-18T00:26:41.698Z,96
2018-02-18T00:27:39.142Z,96
2018-02-18T00:28:39.862Z,96
2018-02-18T00:29:39.298Z,96
2018-02-18T00:30:39.156Z,96
2018-02-18T00:31:39.346Z,96
2018-02-18T00:32:39.312Z,96
2018-02-18T00:33:39.330Z,96
2018-02-18T00:34:39.195Z,96
2018-02-18T00:35:39.422Z,96
2018-02-18T00:36:39.571Z,96
2018-02-18T00:37:39.606Z,96
2018-02-18T00:38:39.390Z,96
2018-02-18T00:39:39.223Z,96
2018-02-18T00:40:39.372Z,96
2018-02-18T00:41:39.170Z,96
2018-02-18T00:42:39.261Z,96
2018-02-18T00:43:39.201Z,96
2018-02-18T00:44:39.336Z,96
2018-02-18T00:45:39.172Z,95
2018-02-18T00:46:39.535Z,95
2018-02-18T00:47:39.251Z,95
2018-02-18T00:48:39.390Z,96
2018-02-18T00:49:39.356Z,96
2018-02-18T00:50:39.438Z,96
2018-02-18T00:51:39.405Z,96
2018-02-18T00:52:39.137Z,96
2018-02-18T00:53:39.212Z,96
2018-02-18T00:54:39.177Z,96
2018-02-18T00:55:39.970Z,96
2018-02-18T00:56:40.548Z,96
2018-02-18T00:57:41.086Z,96
2018-02-18T00:58:39.799Z,96
2018-02-18T00:59:39.805Z,96
2018-02-18T01:00:40.074Z,96
2018-02-18T01:01:42.160Z,96
2018-02-18T01:02:41.139Z,96
2018-02-18T01:03:39.703Z,96
2018-02-18T01:04:39.738Z,96
2018-02-18T01:05:39.234Z,96
2018-02-18T01:06:39.414Z,96
2018-02-18T01:07:40.025Z,96
2018-02-18T01:08:40.702Z,96
2018-02-18T01:09:39.998Z,96
2018-02-18T01:10:39.390Z,96
2018-02-18T01:11:39.356Z,96
2018-02-18T01:12:39.814Z,96
2018-02-18T01:13:41.412Z,96
2018-02-18T01:14:39.244Z,96
2018-02-18T01:15:40.934Z,96
2018-02-18T01:16:42.244Z,96
2018-02-18T01:17:40.383Z,96
2018-02-18T01:19:39.208Z,96
2018-02-18T01:20:40.729Z,96
2018-02-18T01:21:39.344Z,96
2018-02-18T01:22:39.322Z,96
2018-02-18T01:23:39.218Z,96
2018-02-18T01:24:39.392Z,96
2018-02-18T01:25:39.440Z,96
2018-02-18T01:26:39.256Z,96
2018-02-18T01:27:40.844Z,96
2018-02-18T01:28:39.341Z,96
2018-02-18T01:29:40.087Z,96
2018-02-18T01:30:41.916Z,96
2018-02-18T01:31:40.661Z,96
2018-02-18T01:32:39.321Z,96
2018-02-18T01:33:39.921Z,96
2018-02-18T01:34:39.442Z,96
2018-02-18T01:35:39.460Z,96
2018-02-18T01:37:39.271Z,96
2018-02-18T01:38:39.666Z,96
2018-02-18T01:39:39.587Z,96
2018-02-18T01:40:39.460Z,96
2018-02-18T01:41:39.353Z,97
2018-02-18T01:42:40.176Z,97
2018-02-18T01:43:39.485Z,97
2018-02-18T01:44:39.343Z,97
2018-02-18T01:45:39.261Z,97
2018-02-18T01:46:40.066Z,96
2018-02-18T01:47:39.323Z,96
2018-02-18T01:48:40.309Z,96
2018-02-18T01:49:39.328Z,96
2018-02-18T01:50:39.453Z,96
2018-02-18T01:51:39.286Z,96
2018-02-18T01:52:40.125Z,96
2018-02-18T01:53:39.410Z,96
2018-02-18T01:54:39.386Z,96
2018-02-18T01:55:39.475Z,96
2018-02-18T01:57:39.281Z,96
2018-02-18T01:58:39.291Z,96
2018-02-18T01:59:39.340Z,96
2018-02-18T02:00:39.452Z,96
2018-02-18T02:01:39.658Z,96
2018-02-18T02:02:39.443Z,96
2018-02-18T02:03:39.267Z,96
2018-02-18T02:04:39.540Z,96
2018-02-18T02:05:39.450Z,96
2018-02-18T02:06:39.904Z,96
2018-02-18T02:07:39.273Z,96
2018-02-18T02:08:39.296Z,96
2018-02-18T02:09:39.468Z,96
2018-02-18T02:10:39.466Z,96
2018-02-18T02:11:39.503Z,96
2018-02-18T02:12:39.628Z,96
2018-02-18T02:13:39.658Z,96
2018-02-18T02:14:39.302Z,96
2018-02-18T02:15:39.264Z,96
2018-02-18T02:16:42.952Z,96
2018-02-18T02:17:39.285Z,96
2018-02-18T02:18:39.256Z,96
2018-02-18T02:19:39.424Z,96
2018-02-18T02:20:39.362Z,96
2018-02-18T02:21:39.668Z,96
2018-02-18T02:22:39.442Z,96
2018-02-18T02:23:39.351Z,96
2018-02-18T02:24:39.375Z,96
2018-02-18T02:25:39.548Z,96
2018-02-18T02:26:39.490Z,96
2018-02-18T02:27:39.326Z,96
2018-02-18T02:28:39.498Z,96
2018-02-18T02:29:39.958Z,96
2018-02-18T02:30:39.566Z,96
2018-02-18T02:31:40.529Z,96
2018-02-18T02:32:39.717Z,96
2018-02-18T02:33:39.345Z,96
2018-02-18T02:34:39.506Z,96
2018-02-18T02:35:39.574Z,96
2018-02-18T02:36:39.317Z,96
2018-02-18T02:37:39.549Z,96
2018-02-18T02:39:39.354Z,96
2018-02-18T02:40:39.349Z,96
2018-02-18T02:41:39.575Z,96
2018-02-18T02:42:39.515Z,96
2018-02-18T02:43:39.693Z,96
2018-02-18T02:44:39.407Z,96
2018-02-18T02:45:39.440Z,96
2018-02-18T02:46:39.576Z,96
2018-02-18T02:47:39.561Z,96
2018-02-18T02:48:39.534Z,96
2018-02-18T02:49:39.384Z,96
2018-02-18T02:50:39.572Z,96
2018-02-18T02:51:39.544Z,96
2018-02-18T02:52:39.341Z,96
2018-02-18T02:53:39.540Z,96
2018-02-18T02:54:39.543Z,96
2018-02-18T02:55:40.157Z,96
2018-02-18T02:56:39.569Z,96
2018-02-18T02:57:39.448Z,96
2018-02-18T02:58:39.565Z,96
2018-02-18T02:59:39.573Z,96
2018-02-18T03:00:39.560Z,96
2018-02-18T03:01:40.205Z,96
2018-02-18T03:02:39.413Z,96
2018-02-18T03:03:39.581Z,96
2018-02-18T03:04:39.452Z,96
2018-02-18T03:05:39.639Z,96
2018-02-18T03:06:39.390Z,96
2018-02-18T03:07:39.421Z,96
2018-02-18T03:08:39.637Z,96
2018-02-18T03:09:39.698Z,96
2018-02-18T03:10:39.405Z,96
2018-02-18T03:12:39.376Z,96
2018-02-18T03:13:39.603Z,96
2018-02-18T03:14:39.540Z,96
2018-02-18T03:15:39.529Z,96
2018-02-18T03:16:39.683Z,96
2018-02-18T03:17:39.349Z,96
2018-02-18T03:18:39.544Z,96
2018-02-18T03:19:39.365Z,96
2018-02-18T03:20:39.324Z,96
2018-02-18T03:21:39.409Z,96
2018-02-18T03:22:39.509Z,96
2018-02-18T03:23:39.397Z,96
2018-02-18T03:24:39.594Z,96
2018-02-18T03:25:39.623Z,96
2018-02-18T03:26:39.566Z,96
2018-02-18T03:27:39.430Z,96
2018-02-18T03:28:39.631Z,96
2018-02-18T03:29:39.433Z,96
2018-02-18T03:30:40.762Z,96
2018-02-18T03:31:39.411Z,96
2018-02-18T03:32:39.597Z,96
2018-02-18T03:33:39.596Z,96
2018-02-18T03:34:39.630Z,96
2018-02-18T03:35:40.102Z,96
2018-02-18T03:36:39.558Z,96
2018-02-18T03:40:39.615Z,96
2018-02-18T03:41:39.665Z,96
2018-02-18T03:42:39.447Z,96
2018-02-18T03:43:39.671Z,96
2018-02-18T03:44:39.426Z,96
2018-02-18T03:45:39.572Z,96
2018-02-18T03:46:39.734Z,96
2018-02-18T03:48:39.461Z,96
2018-02-18T03:49:39.673Z,96
2018-02-18T03:50:39.630Z,96
2018-02-18T03:51:39.699Z,96
2018-02-18T03:53:39.456Z,96
2018-02-18T03:54:39.624Z,96
2018-02-18T03:55:39.566Z,96
2018-02-18T03:56:39.457Z,96
2018-02-18T03:57:39.636Z,96
2018-02-18T03:58:39.619Z,96
2018-02-18T03:59:39.494Z,96
2018-02-18T04:00:39.635Z,96
2018-02-18T04:01:40.140Z,96
2018-02-18T04:02:39.445Z,96
2018-02-18T04:03:39.545Z,96
2018-02-18T04:04:39.700Z,96
2018-02-18T04:05:39.656Z,96
2018-02-18T04:06:48.107Z,96
2018-02-18T04:07:41.630Z,96
2018-02-18T04:08:41.829Z,96
2018-02-18T04:09:41.821Z,96
2018-02-18T04:10:43.263Z,96
2018-02-18T04:11:44.509Z,96
2018-02-18T04:12:40.615Z,96
2018-02-18T04:15:40.906Z,96
2018-02-18T04:16:40.484Z,96
2018-02-18T04:17:41.809Z,96
2018-02-18T04:18:41.680Z,96
2018-02-18T04:19:41.945Z,96
2018-02-18T04:20:41.794Z,96
2018-02-18T04:21:46.364Z,96
2018-02-18T04:22:42.363Z,96
2018-02-18T04:23:52.233Z,96
2018-02-18T04:24:41.592Z,96
2018-02-18T04:25:41.039Z,96
2018-02-18T04:26:41.629Z,96
2018-02-18T04:27:39.779Z,96
2018-02-18T04:28:41.503Z,96
2018-02-18T04:29:41.587Z,96
2018-02-18T04:30:41.380Z,96
2018-02-18T04:31:40.474Z,96
2018-02-18T04:32:42.713Z,96
2018-02-18T04:33:42.666Z,96
2018-02-18T04:34:43.685Z,96
2018-02-18T04:35:41.589Z,96
2018-02-18T04:36:45.262Z,96
2018-02-18T04:37:45.451Z,96
2018-02-18T04:38:43.152Z,96
2018-02-18T04:39:43.132Z,96
2018-02-18T04:40:41.321Z,96
2018-02-18T04:41:41.385Z,96
2018-02-18T04:42:41.872Z,96
2018-02-18T04:43:41.840Z,96
2018-02-18T04:44:44.536Z,96
2018-02-18T04:45:40.745Z,96
2018-02-18T04:46:44.103Z,96
2018-02-18T04:47:39.785Z,96
2018-02-18T04:48:46.558Z,96
2018-02-18T04:49:45.496Z,96
2018-02-18T04:50:41.161Z,96
2018-02-18T04:51:46.770Z,96
2018-02-18T04:52:42.045Z,96
2018-02-18T04:53:43.069Z,96
2018-02-18T04:55:44.875Z,96
2018-02-18T04:56:41.565Z,96
2018-02-18T04:57:45.372Z,96
2018-02-18T04:58:48.558Z,96
2018-02-18T04:59:41.019Z,96
2018-02-18T05:00:40.750Z,96
2018-02-18T05:01:45.034Z,96
2018-02-18T05:02:39.930Z,96
2018-02-18T05:03:45.441Z,96
2018-02-18T05:04:46.295Z,96
2018-02-18T05:05:39.650Z,96
2018-02-18T05:06:39.795Z,96
2018-02-18T05:07:39.809Z,96
2018-02-18T05:08:39.682Z,96
2018-02-18T05:09:39.660Z,96
2018-02-18T05:11:39.795Z,96
2018-02-18T05:12:39.774Z,96
2018-02-18T05:13:39.812Z,96
2018-02-18T05:14:39.861Z,96
2018-02-18T05:15:39.652Z,96
2018-02-18T05:16:40.244Z,96
2018-02-18T05:17:39.660Z,96
2018-02-18T05:18:39.933Z,96
2018-02-18T05:19:39.818Z,96
2018-02-18T05:20:39.835Z,96
2018-02-18T05:21:39.862Z,96
2018-02-18T05:22:39.873Z,96
2018-02-18T05:23:39.859Z,96
2018-02-18T05:24:39.689Z,96
2018-02-18T05:25:39.828Z,96
2018-02-18T05:26:39.865Z,96
2018-02-18T05:27:40.201Z,96
2018-02-18T05:28:39.935Z,96
2018-02-18T05:29:39.887Z,96
2018-02-18T05:30:39.867Z,96
2018-02-18T05:31:40.270Z,96
2018-02-18T05:32:39.926Z,96
2018-02-18T05:33:39.762Z,96
2018-02-18T05:34:39.701Z,96
2018-02-18T05:35:39.658Z,96
2018-02-18T05:36:39.721Z,96
2018-02-18T05:37:39.708Z,96
2018-02-18T05:38:39.737Z,96
2018-02-18T05:40:39.963Z,96
2018-02-18T05:41:39.696Z,96
2018-02-18T05:42:39.807Z,96
2018-02-18T05:43:39.932Z,96
2018-02-18T05:44:39.886Z,96
2018-02-18T05:45:39.694Z,96
2018-02-18T05:46:39.990Z,96
2018-02-18T05:47:39.662Z,96
2018-02-18T05:48:39.803Z,96
2018-02-18T05:49:39.654Z,96
2018-02-18T05:50:39.886Z,96
2018-02-18T05:51:39.690Z,96
2018-02-18T05:52:39.730Z,96
2018-02-18T05:53:39.893Z,96
2018-02-18T05:54:39.936Z,96
2018-02-18T05:55:39.709Z,96
2018-02-18T05:56:39.887Z,96
2018-02-18T05:57:39.877Z,96
2018-02-18T05:58:39.780Z,96
2018-02-18T05:59:39.767Z,96
2018-02-18T06:00:40.407Z,96
2018-02-18T06:01:39.862Z,96
2018-02-18T06:02:39.916Z,96
2018-02-18T06:03:39.872Z,96
2018-02-18T06:04:39.860Z,96
2018-02-18T06:05:39.775Z,96
2018-02-18T06:06:40.016Z,96
2018-02-18T06:07:39.766Z,96
2018-02-18T06:08:39.967Z,96
2018-02-18T06:09:41.065Z,96
2018-02-18T06:10:39.960Z,96
2018-02-18T06:11:39.732Z,96
2018-02-18T06:12:39.861Z,96
2018-02-18T06:13:39.739Z,96
2018-02-18T06:14:39.987Z,96
2018-02-18T06:15:39.967Z,96
2018-02-18T06:16:39.962Z,96
2018-02-18T06:17:39.781Z,96
2018-02-18T06:18:40.503Z,96
2018-02-18T06:19:39.971Z,96
2018-02-18T06:20:40.084Z,96
2018-02-18T06:21:40.075Z,96
2018-02-18T06:22:39.821Z,96
2018-02-18T06:23:39.761Z,96
2018-02-18T06:24:39.839Z,96
2018-02-18T06:25:39.751Z,96
2018-02-18T06:26:39.999Z,96
2018-02-18T06:27:39.945Z,96
2018-02-18T06:28:40.019Z,96
2018-02-18T06:29:39.919Z,96
2018-02-18T06:31:39.776Z,96
2018-02-18T06:32:40.059Z,96
2018-02-18T06:33:40.374Z,96
2018-02-18T06:34:39.761Z,96
2018-02-18T06:35:39.814Z,96
2018-02-18T06:36:39.939Z,96
2018-02-18T06:37:39.721Z,96
2018-02-18T06:38:39.916Z,96
2018-02-18T06:41:40.512Z,95
2018-02-18T06:42:39.846Z,95
2018-02-18T06:43:39.981Z,95
2018-02-18T06:44:39.955Z,95
2018-02-18T06:45:39.964Z,95
2018-02-18T06:46:40.020Z,95
2018-02-18T06:47:40.052Z,95
2018-02-18T06:48:39.778Z,95
2018-02-18T06:49:40.781Z,95
2018-02-18T06:50:40.059Z,95
2018-02-18T06:51:39.818Z,95
2018-02-18T06:52:39.949Z,95
2018-02-18T06:53:40.561Z,95
2018-02-18T06:54:39.969Z,95
2018-02-18T06:57:40.026Z,96
2018-02-18T06:58:39.982Z,96
2018-02-18T06:59:40.413Z,96
2018-02-18T07:00:39.974Z,96
2018-02-18T07:01:40.199Z,96
2018-02-18T07:02:40.391Z,96
2018-02-18T07:03:39.832Z,96
2018-02-18T07:04:39.980Z,96
2018-02-18T07:05:40.037Z,96
2018-02-18T07:06:39.842Z,95
2018-02-18T07:07:39.822Z,95
2018-02-18T07:08:39.901Z,95
2018-02-18T07:09:40.084Z,95
2018-02-18T07:10:39.876Z,95
2018-02-18T07:11:39.883Z,95
2018-02-18T07:12:39.824Z,95
2018-02-18T07:13:39.855Z,95
2018-02-18T07:14:41.276Z,95
2018-02-18T07:15:40.585Z,95
2018-02-18T07:16:40.103Z,95
2018-02-18T07:17:40.583Z,95
2018-02-18T07:18:40.087Z,95
2018-02-18T07:19:39.837Z,95
2018-02-18T07:20:39.856Z,95
2018-02-18T07:21:40.099Z,95
2018-02-18T07:22:40.061Z,95
2018-02-18T07:23:40.002Z,95
2018-02-18T07:24:41.111Z,95
2018-02-18T07:25:40.098Z,95
2018-02-18T07:26:39.931Z,95
2018-02-18T07:27:39.884Z,95
2018-02-18T07:28:40.049Z,95
2018-02-18T07:29:39.925Z,95
2018-02-18T07:30:39.980Z,95
2018-02-18T07:31:41.256Z,95
2018-02-18T07:32:40.032Z,95
2018-02-18T07:33:39.869Z,95
2018-02-18T07:34:40.065Z,95
2018-02-18T07:36:49.996Z,95
2018-02-18T07:38:40.050Z,95
2018-02-18T07:39:40.097Z,95
2018-02-18T07:40:39.922Z,95
2018-02-18T07:41:39.919Z,95
2018-02-18T07:42:40.125Z,95
2018-02-18T07:43:39.935Z,95
2018-02-18T07:44:40.158Z,95
2018-02-18T07:45:40.052Z,95
2018-02-18T07:46:41.058Z,95
2018-02-18T07:47:40.165Z,95
2018-02-18T07:48:39.890Z,95
2018-02-18T07:49:39.982Z,95
2018-02-18T07:50:39.997Z,95
2018-02-18T07:51:40.181Z,95
2018-02-18T07:52:39.932Z,95
2018-02-18T07:53:40.101Z,95
2018-02-18T07:54:39.956Z,95
2018-02-18T07:55:40.123Z,95
2018-02-18T07:56:40.122Z,95
2018-02-18T07:57:40.132Z,95
2018-02-18T07:58:40.117Z,95
2018-02-18T07:59:39.965Z,95
2018-02-18T08:01:39.998Z,95
2018-02-18T08:02:40.150Z,95
2018-02-18T08:03:40.184Z,95
2018-02-18T08:04:39.935Z,95
2018-02-18T08:05:40.173Z,95
2018-02-18T08:06:39.993Z,95
2018-02-18T08:07:39.998Z,95
2018-02-18T08:08:40.173Z,95
2018-02-18T08:09:42.056Z,95
2018-02-18T08:10:39.949Z,95
2018-02-18T08:11:40.184Z,95
2018-02-18T08:12:40.890Z,95
2018-02-18T08:13:40.233Z,95
2018-02-18T08:14:40.001Z,95
2018-02-18T08:15:39.988Z,95
2018-02-18T08:16:42.336Z,95
2018-02-18T08:17:40.356Z,95
2018-02-18T08:18:40.261Z,95
2018-02-18T08:19:40.274Z,95
2018-02-18T08:20:40.227Z,95
2018-02-18T08:21:40.005Z,95
2018-02-18T08:22:40.191Z,95
2018-02-18T08:23:40.240Z,95
2018-02-18T08:24:39.992Z,95
2018-02-18T08:25:41.423Z,95
2018-02-18T08:26:40.390Z,95
2018-02-18T08:27:40.233Z,95
2018-02-18T08:28:40.232Z,95
2018-02-18T08:29:40.166Z,95
2018-02-18T08:30:40.875Z,95
2018-02-18T08:31:40.279Z,95
2018-02-18T08:35:40.166Z,95
2018-02-18T08:39:40.196Z,95
2018-02-18T08:41:40.184Z,95
2018-02-18T08:42:41.458Z,95
2018-02-18T08:43:40.139Z,95
2018-02-18T08:45:06.887Z,95
2018-02-18T08:45:40.315Z,95
2018-02-18T08:46:48.230Z,95
2018-02-18T08:47:40.473Z,95
2018-02-18T08:48:40.408Z,95
2018-02-18T08:49:40.913Z,95
2018-02-18T08:50:41.133Z,95
2018-02-18T08:51:40.359Z,95
2018-02-18T08:52:40.467Z,95
2018-02-18T08:54:40.552Z,95
2018-02-18T08:55:43.522Z,95
2018-02-18T08:56:42.529Z,95
2018-02-18T08:57:40.789Z,95
2018-02-18T08:58:40.825Z,95
2018-02-18T09:04:02.753Z,95
2018-02-18T09:04:31.346Z,95
2018-02-18T09:05:32.993Z,95
2018-02-18T09:06:38.927Z,95
2018-02-18T09:07:35.160Z,95
2018-02-18T09:08:32.665Z,95
2018-02-18T09:09:32.597Z,95
2018-02-18T09:10:32.410Z,95
2018-02-18T09:11:32.463Z,95
2018-02-18T09:12:32.617Z,95
2018-02-18T09:13:33.164Z,95
2018-02-18T09:14:33.783Z,95
2018-02-18T09:16:32.760Z,95
2018-02-18T09:17:33.189Z,95
2018-02-18T09:18:32.860Z,95
2018-02-18T09:19:33.198Z,95
2018-02-18T09:20:33.351Z,95
2018-02-18T09:21:34.514Z,95
2018-02-18T09:22:33.103Z,95
2018-02-18T09:24:42.648Z,95
2018-02-18T09:25:37.832Z,95
2018-02-18T09:26:33.501Z,95
2018-02-18T09:27:38.322Z,95
2018-02-18T09:28:37.392Z,95
2018-02-18T09:29:33.260Z,95
2018-02-18T09:30:34.077Z,95
2018-02-18T09:32:32.756Z,95
2018-02-18T09:33:32.344Z,95
2018-02-18T09:34:32.705Z,95
2018-02-18T09:35:32.735Z,95
2018-02-18T09:36:32.994Z,95
2018-02-18T09:37:32.640Z,95
2018-02-18T09:38:32.422Z,95
2018-02-18T09:39:41.944Z,95
2018-02-18T09:40:32.694Z,95
2018-02-18T09:41:32.586Z,95
2018-02-18T09:42:32.364Z,95
2018-02-18T09:43:32.531Z,95
2018-02-18T09:44:32.461Z,95
2018-02-18T09:45:35.881Z,95
2018-02-18T09:47:32.809Z,95
2018-02-18T09:48:32.743Z,95
2018-02-18T09:50:25.377Z,95
2018-02-18T09:50:40.049Z,95
2018-02-18T09:52:17.449Z,95
2018-02-18T09:52:53.045Z,95
2018-02-18T09:55:37.162Z,95
2018-02-18T09:56:37.882Z,95
2018-02-18T09:57:39.503Z,95
2018-02-18T09:58:36.237Z,95
2018-02-18T10:01:50.797Z,95
2018-02-18T10:02:49.131Z,95
2018-02-18T10:03:49.047Z,95
2018-02-18T10:04:51.211Z,95
2018-02-18T10:05:52.720Z,95
2018-02-18T10:06:50.940Z,95
2018-02-18T10:07:49.132Z,94
2018-02-18T10:08:49.080Z,94
2018-02-18T10:09:49.331Z,94
2018-02-18T10:11:11.964Z,94
2018-02-18T10:11:57.857Z,94
2018-02-18T10:12:49.650Z,94
2018-02-18T10:13:51.002Z,94
2018-02-18T10:14:54.060Z,94
2018-02-18T10:15:51.107Z,94
2018-02-18T10:16:51.841Z,94
2018-02-18T10:17:49.125Z,94
2018-02-18T10:18:52.287Z,94
2018-02-18T10:19:49.196Z,94
2018-02-18T10:20:50.411Z,94
2018-02-18T10:21:49.311Z,94
2018-02-18T10:22:57.744Z,94
2018-02-18T10:23:52.245Z,94
2018-02-18T10:24:49.847Z,95
2018-02-18T10:26:52.023Z,95
2018-02-18T10:27:50.003Z,94
2018-02-18T10:29:50.078Z,94
2018-02-18T10:30:51.135Z,94
2018-02-18T10:31:52.191Z,94
2018-02-18T10:32:49.795Z,94
2018-02-18T10:33:49.161Z,94
2018-02-18T10:35:51.003Z,94
2018-02-18T10:37:17.964Z,94
2018-02-18T10:37:53.052Z,94
2018-02-18T10:38:52.097Z,94
2018-02-18T10:39:50.058Z,94
2018-02-18T10:40:53.708Z,94
2018-02-18T10:41:49.539Z,94
2018-02-18T10:42:49.078Z,95
2018-02-18T10:43:49.553Z,95
2018-02-18T10:44:49.809Z,95
2018-02-18T10:45:52.009Z,95
2018-02-18T10:46:50.920Z,95
2018-02-18T10:49:04.388Z,95
2018-02-18T10:50:02.064Z,95
2018-02-18T10:51:04.634Z,95
2018-02-18T10:52:02.349Z,95
2018-02-18T10:53:02.988Z,95
2018-02-18T10:54:02.226Z,95
2018-02-18T10:55:02.467Z,95
2018-02-18T10:56:02.808Z,95
2018-02-18T10:57:02.287Z,95
2018-02-18T10:58:02.227Z,95
2018-02-18T10:59:02.275Z,95
2018-02-18T11:00:02.443Z,95
2018-02-18T11:01:02.953Z,95
2018-02-18T11:03:03.161Z,95
2018-02-18T11:04:03.150Z,95
2018-02-18T11:05:02.358Z,95
2018-02-18T11:06:02.241Z,95
2018-02-18T11:07:03.024Z,95
2018-02-18T11:08:03.283Z,95
2018-02-18T11:10:02.982Z,95
2018-02-18T11:11:02.445Z,95
2018-02-18T11:12:02.488Z,95
2018-02-18T11:13:02.487Z,95
2018-02-18T11:14:02.614Z,95
2018-02-18T11:15:02.290Z,95
2018-02-18T11:16:02.255Z,95
2018-02-18T11:18:02.266Z,95
2018-02-18T11:19:03.756Z,95
2018-02-18T11:20:02.406Z,95
2018-02-18T11:21:02.511Z,95
2018-02-18T11:22:02.459Z,95
2018-02-18T11:23:02.650Z,95
2018-02-18T11:24:03.759Z,94
2018-02-18T11:25:03.496Z,94
2018-02-18T11:26:02.124Z,94
2018-02-18T11:28:02.297Z,94
2018-02-18T11:29:04.649Z,94
2018-02-18T11:30:05.882Z,94
2018-02-18T11:31:05.420Z,94
2018-02-18T11:32:02.325Z,94
2018-02-18T11:33:02.085Z,94
2018-02-18T11:34:04.654Z,94
2018-02-18T11:35:02.176Z,94
2018-02-18T11:36:02.983Z,94
2018-02-18T11:37:02.355Z,94
2018-02-18T11:38:06.006Z,94
2018-02-18T11:40:02.296Z,94
2018-02-18T11:42:02.259Z,94
2018-02-18T11:43:02.586Z,94
2018-02-18T11:44:03.670Z,95
2018-02-18T11:47:06.954Z,95
2018-02-18T11:49:07.120Z,94
2018-02-18T11:50:06.794Z,94
2018-02-18T11:51:07.224Z,94
2018-02-18T11:53:06.996Z,94
2018-02-18T11:55:07.954Z,94
2018-02-18T11:57:07.179Z,93
2018-02-18T11:58:10.763Z,93
2018-02-18T11:59:10.068Z,93
2018-02-18T12:00:07.881Z,93
2018-02-18T12:01:07.010Z,93
2018-02-18T12:02:06.978Z,92
2018-02-18T12:03:06.798Z,92
2018-02-18T12:05:07.328Z,92
2018-02-18T12:06:07.039Z,92
2018-02-18T12:07:06.864Z,92
2018-02-18T12:09:07.347Z,91
2018-02-18T12:11:07.059Z,91
2018-02-18T12:12:07.484Z,91
2018-02-18T12:13:07.084Z,91
2018-02-18T12:14:06.830Z,90
2018-02-18T12:15:08.683Z,90
2018-02-18T12:16:07.600Z,90
2018-02-18T12:17:10.100Z,90
2018-02-18T12:18:12.315Z,90
2018-02-18T12:19:12.511Z,90
2018-02-18T12:20:10.527Z,90
2018-02-18T12:21:14.507Z,90
2018-02-18T12:22:10.079Z,90
2018-02-18T12:23:07.202Z,90
2018-02-18T12:24:11.104Z,90
2018-02-18T12:25:13.385Z,90
2018-02-18T12:26:07.282Z,90
2018-02-18T12:27:06.998Z,90
2018-02-18T12:28:07.885Z,90
2018-02-18T12:29:07.140Z,90
2018-02-18T12:30:07.146Z,90
2018-02-18T12:31:06.916Z,90
2018-02-18T12:35:16.269Z,89
2018-02-18T12:35:27.776Z,89
2018-02-18T12:36:27.949Z,89
2018-02-18T12:37:27.909Z,89
2018-02-18T12:39:27.969Z,89
2018-02-18T12:40:27.716Z,89
2018-02-18T12:41:28.010Z,89
2018-02-18T12:42:27.792Z,89
2018-02-18T12:43:27.951Z,89
2018-02-18T12:44:27.799Z,89
2018-02-18T12:45:27.794Z,89
2018-02-18T12:46:29.049Z,89
2018-02-18T12:47:27.866Z,89
2018-02-18T12:48:28.064Z,89
2018-02-18T12:49:28.063Z,89
2018-02-18T12:50:27.985Z,89
2018-02-18T12:51:28.667Z,89
2018-02-18T12:52:28.534Z,89
2018-02-18T12:53:27.785Z,89
2018-02-18T12:54:27.810Z,89
2018-02-18T12:55:27.969Z,88
2018-02-18T12:56:27.832Z,88
2018-02-18T12:57:27.852Z,88
2018-02-18T12:58:28.049Z,88
2018-02-18T12:59:27.808Z,88
2018-02-18T13:00:27.746Z,88
2018-02-18T13:01:27.745Z,88
2018-02-18T13:02:28.139Z,88
2018-02-18T13:03:29.016Z,88
2018-02-18T13:04:28.948Z,88
2018-02-18T13:05:28.412Z,88
2018-02-18T13:06:27.866Z,88
2018-02-18T13:07:28.113Z,88
2018-02-18T13:08:28.868Z,88
2018-02-18T13:09:30.371Z,88
2018-02-18T13:10:34.350Z,88
2018-02-18T13:11:33.032Z,88
2018-02-18T13:12:34.409Z,88
2018-02-18T13:14:27.973Z,88
2018-02-18T13:16:27.875Z,88
2018-02-18T13:17:27.812Z,88
2018-02-18T13:18:30.723Z,88
2018-02-18T13:19:28.189Z,88
2018-02-18T13:20:29.227Z,88
2018-02-18T13:22:28.109Z,88
2018-02-18T13:23:27.844Z,88
2018-02-18T13:24:27.870Z,88
2018-02-18T13:25:28.861Z,87
2018-02-18T13:26:28.591Z,87
2018-02-18T13:28:28.256Z,87
2018-02-18T13:29:28.031Z,87
2018-02-18T13:30:29.980Z,87
2018-02-18T13:31:29.290Z,87
2018-02-18T13:32:28.387Z,87
2018-02-18T13:33:38.288Z,87
2018-02-18T13:34:28.759Z,87
2018-02-18T13:36:27.974Z,87
2018-02-18T13:37:28.053Z,87
2018-02-18T13:38:27.819Z,87
2018-02-18T13:39:28.037Z,87
2018-02-18T13:40:29.547Z,87
2018-02-18T13:41:28.663Z,87
2018-02-18T13:43:28.069Z,87
2018-02-18T13:44:27.905Z,87
2018-02-18T13:45:27.955Z,87
2018-02-18T13:46:28.139Z,87
2018-02-18T13:47:28.610Z,87
2018-02-18T13:48:27.893Z,87
2018-02-18T13:49:27.993Z,87
2018-02-18T13:50:27.932Z,87
2018-02-18T13:51:28.101Z,87
2018-02-18T13:52:28.110Z,87
2018-02-18T13:53:27.955Z,87
2018-02-18T13:54:27.951Z,87
2018-02-18T13:55:28.064Z,87
2018-02-18T13:56:28.085Z,87
2018-02-18T13:57:27.960Z,87
2018-02-18T14:00:28.561Z,87
2018-02-18T14:01:27.898Z,87
2018-02-18T14:02:28.025Z,87
2018-02-18T14:03:28.175Z,87
2018-02-18T14:04:27.907Z,87
2018-02-18T14:05:28.160Z,87
2018-02-18T14:06:27.896Z,87
2018-02-18T14:07:29.583Z,87
2018-02-18T14:10:28.042Z,87
2018-02-18T14:11:27.999Z,87
2018-02-18T14:12:28.009Z,87
2018-02-18T14:13:41.161Z,87
2018-02-18T14:14:27.864Z,87
2018-02-18T14:15:27.949Z,87
2018-02-18T14:17:29.886Z,87
2018-02-18T14:18:28.214Z,87
2018-02-18T14:19:28.169Z,87
2018-02-18T14:20:27.814Z,87
2018-02-18T14:21:28.087Z,87
2018-02-18T14:22:28.063Z,87
2018-02-18T14:23:27.961Z,87
2018-02-18T14:24:28.180Z,87
2018-02-18T14:25:28.075Z,87
2018-02-18T14:26:28.168Z,87
2018-02-18T14:28:28.162Z,87
2018-02-18T14:29:27.990Z,87
2018-02-18T14:31:27.886Z,87
2018-02-18T14:32:27.947Z,87
2018-02-18T14:33:28.553Z,87
2018-02-18T14:34:28.616Z,87
2018-02-18T14:35:28.067Z,87
2018-02-18T14:37:28.099Z,87
2018-02-18T14:38:28.429Z,87
2018-02-18T14:39:28.868Z,87
2018-02-18T14:40:28.093Z,87
2018-02-18T14:41:29.918Z,87
2018-02-18T14:42:28.194Z,87
2018-02-18T14:43:35.139Z,87
2018-02-18T14:44:28.082Z,87
2018-02-18T14:45:28.261Z,87
2018-02-18T14:46:29.506Z,87
2018-02-18T14:47:28.190Z,87
2018-02-18T14:48:28.229Z,87
2018-02-18T14:49:28.262Z,87
2018-02-18T14:50:28.167Z,87
2018-02-18T14:51:28.727Z,87
2018-02-18T14:53:28.212Z,87
2018-02-18T14:54:28.158Z,87
2018-02-18T14:55:35.294Z,87
2018-02-18T14:56:32.642Z,87
2018-02-18T14:57:32.699Z,87
2018-02-18T14:58:36.066Z,87
2018-02-18T14:59:31.720Z,87
2018-02-18T15:00:33.768Z,87
2018-02-18T15:01:33.522Z,87
2018-02-18T15:02:30.375Z,87
2018-02-18T15:03:31.184Z,87
2018-02-18T15:04:30.809Z,87
2018-02-18T15:05:31.925Z,87
2018-02-18T15:06:32.752Z,87
2018-02-18T15:07:33.159Z,87
2018-02-18T15:08:32.069Z,87
2018-02-18T15:09:32.287Z,87
2018-02-18T15:10:31.871Z,87
2018-02-18T15:14:51.729Z,87
2018-02-18T15:16:07.550Z,87
2018-02-18T15:18:07.771Z,87
2018-02-18T15:19:09.459Z,87
2018-02-18T15:20:04.540Z,87
2018-02-18T15:21:04.547Z,87
2018-02-18T15:22:04.186Z,87
2018-02-18T15:25:04.559Z,87
2018-02-18T15:26:04.208Z,87
2018-02-18T15:27:05.699Z,87
2018-02-18T15:28:06.660Z,87
2018-02-18T15:29:07.125Z,87
2018-02-18T15:30:07.268Z,87
2018-02-18T15:31:15.346Z,87
2018-02-18T15:32:04.086Z,87
2018-02-18T15:33:03.841Z,87
2018-02-18T15:36:16.179Z,87
2018-02-18T15:36:28.943Z,87
2018-02-18T15:37:28.660Z,87
2018-02-18T15:39:28.854Z,87
2018-02-18T15:40:29.615Z,87
2018-02-18T15:41:30.722Z,87
2018-02-18T15:43:33.048Z,87
2018-02-18T15:44:34.658Z,87
2018-02-18T15:46:42.327Z,87
2018-02-18T15:47:41.329Z,87